Time;durP1;ratioP1;P1;durP2;ratioP2;P2;SDS_P1;SDS_P2;PMS_P1;PMS_P2;Temp;Humidity;BMP_temperature;BMP_pressure;BME280_temperature;BME280_humidity;BME280_pressure;Samples;Min_cycle;Max_cycle;Signal;HPM_P1;HPM_P2
2022/08/09 00:00:42;;;;;;;;;9.00;9.00;;;;;23.99;39.44;101784.38;5076972;28;45444;-91
2022/08/09 00:03:08;;;;;;;;;9.75;9.00;;;;;23.84;39.35;101760.22;5076981;28;45413;-91
2022/08/09 00:05:33;;;;;;;;;7.00;7.00;;;;;24.02;39.56;101799.56;5075439;28;45685;-90
2022/08/09 00:07:58;;;;;;;;;8.75;8.00;;;;;23.90;38.93;101787.09;5092522;27;45313;-87
2022/08/09 00:10:24;;;;;;;;;9.50;9.00;;;;;23.78;39.32;101769.22;5076798;28;45208;-89
2022/08/09 00:12:49;;;;;;;;;9.75;9.00;;;;;23.78;39.78;101768.31;5076811;28;45418;-91
2022/08/09 00:15:14;;;;;;;;;8.33;8.33;;;;;23.78;39.42;101779.06;5076262;28;52534;-92
2022/08/09 00:17:40;;;;;;;;;11.00;11.00;;;;;23.70;39.56;101778.22;5076810;27;45285;-92
2022/08/09 00:20:05;;;;;;;;;9.75;8.75;;;;;23.73;39.70;101786.22;5076190;27;45596;-92
2022/08/09 00:22:31;;;;;;;;;11.00;10.00;;;;;23.57;40.12;101770.13;5076987;27;46499;-89
2022/08/09 00:24:56;;;;;;;;;9.25;9.00;;;;;23.64;40.07;101782.69;5076531;28;45469;-87
2022/08/09 00:27:21;;;;;;;;;10.50;9.50;;;;;23.66;39.50;101788.94;5076219;28;45416;-84
2022/08/09 00:29:47;;;;;;;;;10.75;10.00;;;;;23.60;39.54;101767.47;5076258;28;45525;-83
2022/08/09 00:32:13;;;;;;;;;9.00;9.00;;;;;23.46;39.83;101752.28;5074788;28;47012;-90
2022/08/09 00:34:38;;;;;;;;;9.00;8.50;;;;;23.64;40.29;101789.81;5075975;28;45362;-87
2022/08/09 00:37:04;;;;;;;;;9.50;8.75;;;;;23.45;40.05;101754.09;5075060;28;45232;-89
2022/08/09 00:39:29;;;;;;;;;9.25;9.25;;;;;23.40;40.34;101751.41;5076638;28;45528;-89
2022/08/09 00:41:54;;;;;;;;;7.75;7.75;;;;;23.48;40.47;101770.16;5076070;28;46228;-82
2022/08/09 00:44:19;;;;;;;;;8.50;8.50;;;;;23.52;40.57;101776.41;5076077;28;45439;-89
2022/08/09 00:46:45;;;;;;;;;9.25;9.00;;;;;23.16;40.72;101716.59;5076163;28;45301;-90
2022/08/09 00:49:10;;;;;;;;;11.00;11.00;;;;;23.42;40.76;101765.69;5075891;28;45407;-88
2022/08/09 00:51:36;;;;;;;;;8.00;7.75;;;;;23.35;40.85;101769.31;5075389;28;46577;-89
2022/08/09 00:54:02;;;;;;;;;8.75;8.75;;;;;23.29;40.75;101760.34;5076202;28;45520;-84
2022/08/09 00:56:29;;;;;;;;;9.50;9.00;;;;;23.20;40.88;101752.31;5075783;28;45817;-85
2022/08/09 00:58:55;;;;;;;;;7.50;7.50;;;;;23.26;41.06;101768.44;5074713;28;45287;-85
2022/08/09 01:01:26;;;;;;;;;7.75;7.25;;;;;23.15;41.04;101758.59;5075835;28;45359;-86
2022/08/09 01:04:29;;;;;;;;;8.75;8.75;;;;;23.15;41.01;101761.28;5091592;27;45919;-83
2022/08/09 01:07:27;;;;;;;;;8.25;8.25;;;;;23.25;41.76;101788.06;5067038;28;45330;-89
2022/08/09 01:10:09;;;;;;;;;8.25;7.50;;;;;23.21;41.72;101797.03;5055610;28;45295;-90
2022/08/09 01:12:44;;;;;;;;;8.50;8.25;;;;;23.07;41.89;101775.59;5074389;28;48401;-89
2022/08/09 01:15:15;;;;;;;;;7.75;7.75;;;;;23.14;42.01;101791.66;5090965;27;46014;-89
2022/08/09 01:17:56;;;;;;;;;9.00;7.50;;;;;23.08;41.60;101780.06;5075742;27;45331;-89
2022/08/09 01:20:33;;;;;;;;;6.25;6.25;;;;;23.02;41.33;101786.31;5075384;28;45501;-87
2022/08/09 01:23:11;;;;;;;;;8.75;8.75;;;;;23.02;42.08;101790.78;5075459;28;46531;-88
2022/08/09 01:25:45;;;;;;;;;7.25;7.25;;;;;22.99;42.18;101788.09;5075579;28;45252;-88
2022/08/09 01:28:13;;;;;;;;;8.50;8.25;;;;;22.81;42.45;101771.09;5091463;27;45397;-87
2022/08/09 01:30:41;;;;;;;;;8.00;8.00;;;;;22.92;42.16;101787.22;5075627;28;45373;-88
2022/08/09 01:33:08;;;;;;;;;8.25;7.75;;;;;22.67;42.71;101755.00;5074239;28;45414;-92
2022/08/09 01:35:43;;;;;;;;;4.75;4.75;;;;;22.76;42.79;101778.25;5075109;28;45370;-87
2022/08/09 01:38:14;;;;;;;;;8.00;6.25;;;;;22.81;42.85;101792.53;5075465;28;45500;-89
2022/08/09 01:40:43;;;;;;;;;8.00;7.25;;;;;22.71;42.67;101780.03;5075811;28;45488;-87
2022/08/09 01:43:10;;;;;;;;;7.75;7.75;;;;;22.62;42.78;101764.81;5091159;27;48124;-92
2022/08/09 01:45:36;;;;;;;;;5.75;5.75;;;;;22.58;43.31;101765.69;5074093;28;45305;-90
2022/08/09 01:48:03;;;;;;;;;8.00;8.00;;;;;22.60;42.79;101763.00;5091124;27;45369;-88
2022/08/09 01:50:29;;;;;;;;;8.00;7.75;;;;;22.67;43.12;101778.22;5074878;28;45532;-88
2022/08/09 01:52:58;;;;;;;;;6.25;6.25;;;;;22.55;43.04;101759.44;5073769;28;48222;-86
2022/08/09 01:55:25;;;;;;;;;7.25;7.00;;;;;22.44;43.33;101743.34;5074980;28;45495;-83
2022/08/09 01:57:52;;;;;;;;;6.25;6.25;;;;;22.58;43.33;101772.84;5075610;28;45274;-88
2022/08/09 02:00:18;;;;;;;;;8.00;8.00;;;;;22.37;43.37;101746.91;5075316;28;45481;-91
2022/08/09 02:02:48;;;;;;;;;7.50;7.00;;;;;22.55;43.48;101778.19;5075253;27;45395;-89
2022/08/09 02:05:17;;;;;;;;;6.00;6.00;;;;;22.53;43.69;101788.91;5074932;28;45303;-91
2022/08/09 02:07:47;;;;;;;;;6.75;6.50;;;;;22.24;43.85;101734.38;5090957;27;45464;-87
2022/08/09 02:10:19;;;;;;;;;6.00;6.00;;;;;22.21;44.35;101737.03;5075004;28;45499;-87
2022/08/09 02:12:47;;;;;;;;;6.75;5.75;;;;;22.46;44.31;101772.81;5075100;28;45599;-91
2022/08/09 02:15:16;;;;;;;;;6.00;6.00;;;;;22.46;44.50;101780.84;5074631;27;45244;-89
2022/08/09 02:17:44;;;;;;;;;6.50;6.50;;;;;22.44;44.05;101771.94;5090396;27;45430;-88
2022/08/09 02:20:11;;;;;;;;;6.00;5.50;;;;;22.39;44.33;101782.63;5073249;28;45380;-85
2022/08/09 02:23:02;;;;;;;;;6.25;5.75;;;;;22.35;44.05;101773.69;5074835;28;45503;-83
2022/08/09 02:25:31;;;;;;;;;5.25;5.25;;;;;22.28;44.55;101763.84;5063795;28;45924;-89
2022/08/09 02:28:12;;;;;;;;;8.25;7.50;;;;;22.01;44.94;101734.28;5073896;28;45332;-89
2022/08/09 02:30:48;;;;;;;;;6.75;6.75;;;;;21.99;44.55;101725.34;5075276;28;45377;-90
2022/08/09 02:33:27;;;;;;;;;6.75;6.50;;;;;22.25;44.63;101774.53;5075131;28;46457;-91
2022/08/09 02:35:57;;;;;;;;;8.00;8.00;;;;;22.08;44.88;101749.47;5073149;28;45888;-92
2022/08/09 02:38:27;;;;;;;;;7.00;7.00;;;;;22.13;45.04;101764.72;5075054;28;45374;-88
2022/08/09 02:41:00;;;;;;;;;8.50;8.00;;;;;21.84;44.85;101719.06;5074855;28;45310;-89
2022/08/09 02:43:29;;;;;;;;;7.00;6.00;;;;;21.97;44.89;101745.84;5073743;28;47193;-87
2022/08/09 02:46:00;;;;;;;;;6.00;6.00;;;;;22.08;45.03;101769.13;5078414;28;45278;-89
2022/08/09 02:48:29;;;;;;;;;5.00;5.00;;;;;21.93;45.63;101747.66;5094452;27;45656;-86
2022/08/09 02:50:56;;;;;;;;;6.00;6.00;;;;;21.98;45.52;101758.38;5077719;28;45363;-86
2022/08/09 02:53:40;;;;;;;;;6.25;5.75;;;;;21.72;45.46;101708.28;5093970;27;47206;-91
2022/08/09 02:56:07;;;;;;;;;9.50;8.50;;;;;21.76;45.80;101720.78;5093926;27;45366;-91
2022/08/09 02:58:34;;;;;;;;;7.25;7.00;;;;;21.97;45.45;101760.16;5093737;27;45418;-90
2022/08/09 03:01:02;;;;;;;;;6.00;6.00;;;;;21.69;45.95;101713.66;5076737;28;45489;-90
2022/08/09 03:03:29;;;;;;;;;5.25;5.00;;;;;21.85;45.70;101739.56;5077614;28;46427;-90
2022/08/09 03:05:57;;;;;;;;;5.00;5.00;;;;;21.87;45.80;101750.28;5077612;28;45432;-91
2022/08/09 03:08:24;;;;;;;;;7.50;6.25;;;;;21.76;46.24;101741.31;5077764;28;45454;-86
2022/08/09 03:10:50;;;;;;;;;7.00;6.00;;;;;21.81;45.64;101760.97;5078184;28;45637;-91
2022/08/09 03:13:19;;;;;;;;;8.00;8.00;;;;;21.66;46.41;101731.47;5077994;28;46462;-87
2022/08/09 03:15:45;;;;;;;;;7.00;6.50;;;;;21.62;46.19;101731.47;5077749;28;45194;-91
2022/08/09 03:18:12;;;;;;;;;6.00;6.00;;;;;21.61;46.35;101739.47;5077836;28;45283;-90
2022/08/09 03:20:39;;;;;;;;;7.00;7.00;;;;;21.60;46.42;101741.25;5077099;28;45346;-92
2022/08/09 03:23:06;;;;;;;;;8.00;7.00;;;;;21.65;46.40;101749.28;5076280;28;47978;-89
2022/08/09 03:25:33;;;;;;;;;7.00;7.00;;;;;21.59;46.42;101747.50;5077120;28;45905;-90
2022/08/09 03:28:00;;;;;;;;;6.25;6.25;;;;;21.57;46.89;101749.25;5077392;28;45476;-89
2022/08/09 03:30:27;;;;;;;;;7.00;7.00;;;;;21.63;46.70;101765.34;5077595;27;45386;-88
2022/08/09 03:32:55;;;;;;;;;7.00;7.00;;;;;21.70;46.98;101781.44;5076985;28;45690;-88
2022/08/09 03:35:21;;;;;;;;;7.25;5.25;;;;;21.34;46.85;101734.88;5077199;28;45404;-90
2022/08/09 03:37:47;;;;;;;;;7.75;7.00;;;;;21.63;47.39;101789.44;5077490;28;45279;-92
2022/08/09 03:40:13;;;;;;;;;7.00;6.25;;;;;21.47;46.58;101763.44;5077163;28;45309;-91
2022/08/09 03:42:38;;;;;;;;;7.25;6.75;;;;;21.41;46.83;101755.41;5076713;28;45409;-89
2022/08/09 03:45:04;;;;;;;;;7.00;7.00;;;;;21.53;47.21;101784.91;5077036;28;45303;-91
2022/08/09 03:47:30;;;;;;;;;7.00;7.00;;;;;21.38;47.41;101766.09;5077186;27;45445;-91
2022/08/09 03:49:57;;;;;;;;;7.00;7.00;;;;;21.35;47.08;101761.59;5076780;28;45377;-90
2022/08/09 03:52:25;;;;;;;;;8.50;8.25;;;;;21.04;47.47;101712.34;5075744;28;48191;-82
2022/08/09 03:54:53;;;;;;;;;7.75;7.00;;;;;21.36;47.75;101767.84;5092407;27;46266;-88
2022/08/09 03:57:18;;;;;;;;;6.50;6.00;;;;;21.29;47.79;101764.22;5076199;28;45480;-91
2022/08/09 03:59:44;;;;;;;;;7.50;6.75;;;;;21.24;47.79;101757.06;5076598;28;45683;-91
2022/08/09 04:02:10;;;;;;;;;9.50;9.00;;;;;21.37;48.14;101781.22;5076692;28;45400;-90
2022/08/09 04:04:36;;;;;;;;;7.25;7.00;;;;;21.16;47.99;101746.28;5076425;28;45278;-91
2022/08/09 04:07:03;;;;;;;;;6.75;6.00;;;;;21.22;48.15;101765.03;5077182;28;45983;-92
2022/08/09 04:09:28;;;;;;;;;7.00;7.00;;;;;21.12;48.01;101748.03;5076985;28;45409;-90
2022/08/09 04:12:09;;;;;;;;;7.00;6.50;;;;;21.32;48.26;101787.44;5092635;27;47072;-87
2022/08/09 04:14:37;;;;;;;;;7.50;7.25;;;;;21.20;47.99;101763.25;5076799;28;45354;-89
2022/08/09 04:17:03;;;;;;;;;9.00;9.00;;;;;21.03;48.34;101745.31;5076668;28;45373;-88
2022/08/09 04:19:29;;;;;;;;;6.25;6.25;;;;;21.18;48.61;101773.94;5092157;27;45303;-89
2022/08/09 04:21:54;;;;;;;;;6.75;6.75;;;;;21.25;48.55;101780.22;5076702;28;45579;-90
2022/08/09 04:24:20;;;;;;;;;7.00;7.00;;;;;21.23;48.78;101788.25;5092619;27;45536;-90
2022/08/09 04:26:45;;;;;;;;;7.50;7.25;;;;;21.06;48.55;101758.69;5076580;28;45457;-91
2022/08/09 04:29:11;;;;;;;;;8.00;7.00;;;;;20.94;48.72;101742.56;5076579;27;45344;-87
2022/08/09 04:31:36;;;;;;;;;6.00;6.00;;;;;21.06;48.70;101755.13;5076848;28;45325;-91
2022/08/09 04:34:02;;;;;;;;;9.75;8.00;;;;;21.15;48.45;101773.03;5092244;27;45409;-89
2022/08/09 04:36:29;;;;;;;;;7.25;7.25;;;;;21.19;48.59;101802.47;5075197;28;45387;-88
2022/08/09 04:38:57;;;;;;;;;8.00;8.00;;;;;21.16;48.53;101805.09;5076414;28;45442;-89
2022/08/09 04:41:23;;;;;;;;;6.25;6.00;;;;;21.01;48.66;101781.81;5076026;28;45279;-89
2022/08/09 04:43:49;;;;;;;;;9.00;8.25;;;;;21.12;48.65;101805.97;5076580;27;45408;-90
2022/08/09 04:46:15;;;;;;;;;7.25;7.25;;;;;21.10;48.15;101805.06;5075208;28;45360;-90
2022/08/09 04:48:40;;;;;;;;;6.00;6.00;;;;;20.87;48.92;101767.44;5075186;28;48314;-91
2022/08/09 04:51:05;;;;;;;;;7.25;7.00;;;;;20.82;48.59;101758.50;5076055;28;46463;-90
2022/08/09 04:53:31;;;;;;;;;6.00;6.00;;;;;20.77;48.73;101761.13;5076220;28;45466;-89
2022/08/09 04:55:56;;;;;;;;;5.75;5.00;;;;;20.86;49.01;101771.00;5076355;28;45461;-91
2022/08/09 04:58:21;;;;;;;;;6.00;6.00;;;;;20.96;49.38;101783.56;5076375;28;45311;-92
2022/08/09 05:00:47;;;;;;;;;5.50;5.50;;;;;21.03;48.85;101798.78;5076039;28;46526;-91
2022/08/09 05:03:12;;;;;;;;;7.50;7.50;;;;;20.96;49.16;101786.22;5074974;28;45409;-91
2022/08/09 05:05:37;;;;;;;;;7.25;7.00;;;;;20.85;49.04;101767.44;5074725;28;45132;-91
2022/08/09 05:08:03;;;;;;;;;7.00;7.00;;;;;21.08;49.37;101799.72;5075731;28;45465;-92
2022/08/09 05:10:28;;;;;;;;;6.25;6.25;;;;;21.00;49.50;101792.50;5076061;28;45338;-90
2022/08/09 05:12:53;;;;;;;;;6.00;5.75;;;;;20.87;49.24;101778.13;5074555;28;45493;-86
2022/08/09 05:15:19;;;;;;;;;6.00;5.25;;;;;20.92;49.43;101791.53;5076087;28;45458;-90
2022/08/09 05:17:44;;;;;;;;;8.00;8.00;;;;;20.89;49.28;101784.41;5075838;28;45197;-89
2022/08/09 05:20:10;;;;;;;;;6.00;6.00;;;;;21.06;49.17;101814.81;5073687;28;58086;-89
2022/08/09 05:22:35;;;;;;;;;7.00;6.00;;;;;20.91;49.51;101785.28;5074667;28;45964;-90
2022/08/09 05:25:02;;;;;;;;;7.25;6.00;;;;;21.06;48.96;101820.16;5075795;28;45487;-91
2022/08/09 05:27:28;;;;;;;;;8.25;7.25;;;;;20.86;49.57;101784.38;5076157;28;45421;-90
2022/08/09 05:29:53;;;;;;;;;9.00;9.00;;;;;20.99;49.16;101807.66;5075967;28;46445;-91
2022/08/09 05:32:19;;;;;;;;;9.00;8.50;;;;;20.83;49.35;101776.31;5075387;28;50145;-89
2022/08/09 05:34:44;;;;;;;;;8.75;7.25;;;;;20.72;49.70;101753.94;5075247;28;45404;-89
2022/08/09 05:37:10;;;;;;;;;4.00;4.00;;;;;20.84;49.44;101789.69;5073931;28;45421;-90
2022/08/09 05:39:37;;;;;;;;;6.75;6.25;;;;;20.92;49.34;101799.56;5074045;28;46968;-84
2022/08/09 05:42:03;;;;;;;;;6.75;6.75;;;;;21.00;49.77;101813.88;5075259;28;45396;-89
2022/08/09 05:44:28;;;;;;;;;6.00;5.75;;;;;20.90;49.64;101790.63;5090799;27;45379;-87
2022/08/09 05:46:54;;;;;;;;;8.50;7.75;;;;;20.93;49.34;101790.66;5074067;28;45341;-92
2022/08/09 05:49:19;;;;;;;;;8.00;8.00;;;;;21.09;50.02;101817.53;5073450;28;48131;-87
2022/08/09 05:51:44;;;;;;;;;7.50;7.00;;;;;21.02;49.77;101809.44;5074027;28;48574;-90
2022/08/09 05:54:10;;;;;;;;;7.75;6.00;;;;;20.84;49.51;101778.13;5075298;28;45481;-91
2022/08/09 05:56:35;;;;;;;;;7.00;7.00;;;;;20.90;49.67;101786.19;5075152;27;45449;-91
2022/08/09 05:59:00;;;;;;;;;6.50;6.50;;;;;21.03;49.54;101816.56;5075401;27;45731;-92
2022/08/09 06:01:27;;;;;;;;;7.75;7.75;;;;;21.12;49.43;101822.88;5074033;28;45444;-90
2022/08/09 06:03:53;;;;;;;;;8.50;7.00;;;;;21.02;49.79;101814.78;5075647;27;45607;-91
2022/08/09 06:06:19;;;;;;;;;7.75;7.75;;;;;21.02;49.54;101815.69;5074952;28;45483;-91
2022/08/09 06:08:44;;;;;;;;;7.00;7.00;;;;;20.91;49.54;101798.66;5074960;28;45512;-91
2022/08/09 06:11:10;;;;;;;;;8.00;8.00;;;;;20.90;49.49;101793.31;5075201;28;45460;-93
2022/08/09 06:13:36;;;;;;;;;6.25;6.25;;;;;21.05;49.59;101826.41;5075256;27;45470;-90
2022/08/09 06:16:02;;;;;;;;;7.75;7.00;;;;;21.00;49.81;101812.09;5073790;28;45616;-89
2022/08/09 06:18:27;;;;;;;;;8.00;8.00;;;;;20.93;49.42;101793.31;5074436;28;45401;-90
2022/08/09 06:20:54;;;;;;;;;9.00;8.25;;;;;21.02;49.60;101806.75;5074951;28;45382;-93
2022/08/09 06:23:19;;;;;;;;;7.25;7.25;;;;;20.97;49.72;101803.16;5091093;27;45308;-93
2022/08/09 06:25:44;;;;;;;;;7.25;7.00;;;;;21.13;49.69;101834.47;5090892;27;45252;-89
2022/08/09 06:28:10;;;;;;;;;9.00;8.75;;;;;21.16;49.66;101836.28;5074651;28;47791;-92
2022/08/09 06:30:35;;;;;;;;;9.25;9.25;;;;;21.03;49.71;101803.19;5073829;28;47565;-92
2022/08/09 06:33:01;;;;;;;;;9.00;7.25;;;;;21.25;49.30;101839.06;5075102;28;45374;-91
2022/08/09 06:35:27;;;;;;;;;8.00;8.00;;;;;21.34;49.61;101848.09;5074604;28;45627;-92
2022/08/09 06:37:52;;;;;;;;;9.00;7.00;;;;;21.35;49.85;101854.31;5074849;28;46198;-91
2022/08/09 06:40:17;;;;;;;;;6.00;6.00;;;;;21.24;49.45;101823.91;5075022;27;45484;-89
2022/08/09 06:42:43;;;;;;;;;10.25;9.00;;;;;21.19;49.40;101814.94;5075009;28;45294;-90
2022/08/09 06:45:09;;;;;;;;;9.00;9.00;;;;;21.43;49.62;101855.28;5073804;28;45338;-92
2022/08/09 06:47:34;;;;;;;;;8.50;8.00;;;;;21.41;48.99;101843.66;5074598;27;45349;-92
2022/08/09 06:49:59;;;;;;;;;8.75;8.50;;;;;21.30;49.20;101824.88;5074292;28;45920;-92
2022/08/09 06:52:25;;;;;;;;;8.67;8.00;;;;;21.46;49.16;101843.69;5074839;28;45473;-88
2022/08/09 06:54:50;;;;;;;;;8.00;8.00;;;;;21.43;49.11;101830.28;5074591;28;45332;-90
2022/08/09 06:57:15;;;;;;;;;8.00;8.00;;;;;21.42;49.61;101836.53;5074608;27;46243;-89
2022/08/09 06:59:41;;;;;;;;;7.33;7.00;;;;;21.42;49.36;101831.19;5074665;28;45524;-91
2022/08/09 07:02:07;;;;;;;;;8.00;8.00;;;;;21.66;49.22;101862.56;5074517;27;45430;-91
2022/08/09 07:04:32;;;;;;;;;8.50;8.00;;;;;21.64;49.15;101863.47;5090445;27;45515;-89
2022/08/09 07:06:58;;;;;;;;;8.25;8.25;;;;;21.66;48.96;101862.56;5074159;28;46524;-92
2022/08/09 07:09:23;;;;;;;;;10.50;9.75;;;;;21.47;49.18;101824.97;5074718;28;45528;-91
2022/08/09 07:11:49;;;;;;;;;8.25;8.25;;;;;21.46;49.07;101807.13;5074590;28;45339;-91
2022/08/09 07:14:16;;;;;;;;;10.25;9.00;;;;;21.59;48.91;101830.44;5074604;27;45269;-93
2022/08/09 07:16:45;;;;;;;;;8.50;8.50;;;;;21.58;49.21;101814.38;5073338;28;48403;-89
2022/08/09 07:19:12;;;;;;;;;7.25;7.00;;;;;21.68;48.93;101832.28;5074092;28;46130;-91
2022/08/09 07:21:38;;;;;;;;;7.75;7.75;;;;;21.93;48.73;101867.22;5074484;28;45841;-90
2022/08/09 07:24:04;;;;;;;;;7.50;7.50;;;;;21.76;48.87;101834.97;5074598;28;45358;-91
2022/08/09 07:26:29;;;;;;;;;10.25;10.00;;;;;21.88;48.70;101853.81;5074218;28;46620;-89
2022/08/09 07:28:55;;;;;;;;;10.75;9.75;;;;;21.94;48.58;101856.50;5073981;28;45443;-90
2022/08/09 07:31:20;;;;;;;;;8.50;8.00;;;;;21.89;48.56;101845.78;5077421;28;45254;-90
2022/08/09 07:33:46;;;;;;;;;9.00;8.00;;;;;21.93;48.75;101840.44;5077616;28;45400;-88
2022/08/09 07:36:12;;;;;;;;;10.00;9.00;;;;;22.03;48.30;101859.25;5076992;28;46132;-91
2022/08/09 07:38:37;;;;;;;;;9.00;8.00;;;;;22.18;48.24;101876.31;5077908;28;45326;-90
2022/08/09 07:41:03;;;;;;;;;8.50;7.50;;;;;21.90;48.63;101827.94;5077907;28;45374;-89
2022/08/09 07:43:28;;;;;;;;;11.00;10.25;;;;;22.05;48.17;101845.84;5077782;28;45302;-84
2022/08/09 07:45:54;;;;;;;;;6.25;6.25;;;;;22.05;48.23;101852.09;5077343;28;46544;-91
2022/08/09 07:48:19;;;;;;;;;9.00;8.25;;;;;22.13;48.08;101854.84;5077107;28;45404;-88
2022/08/09 07:50:45;;;;;;;;;8.00;7.00;;;;;22.20;48.40;101853.09;5076584;28;45460;-88
2022/08/09 07:53:10;;;;;;;;;7.00;6.25;;;;;22.23;48.29;101855.78;5093051;27;45424;-90
2022/08/09 07:55:35;;;;;;;;;10.75;9.25;;;;;22.29;48.35;101861.16;5077111;28;45400;-91
2022/08/09 07:58:01;;;;;;;;;9.25;8.75;;;;;22.27;48.28;101839.75;5077111;28;45630;-84
2022/08/09 08:00:28;;;;;;;;;8.25;7.75;;;;;22.44;48.25;101861.22;5077605;28;45286;-82
2022/08/09 08:02:54;;;;;;;;;7.25;6.25;;;;;22.31;47.77;101829.91;5076688;27;45261;-89
2022/08/09 08:05:20;;;;;;;;;9.50;7.75;;;;;22.39;47.79;101830.84;5076374;28;47084;-89
2022/08/09 08:07:45;;;;;;;;;8.00;8.00;;;;;22.60;47.52;101862.16;5076619;28;45298;-91
2022/08/09 08:10:11;;;;;;;;;9.00;8.00;;;;;22.73;47.49;101881.88;5076952;27;45386;-88
2022/08/09 08:12:38;;;;;;;;;9.75;8.00;;;;;22.75;47.28;101877.38;5076734;28;45666;-82
2022/08/09 08:15:04;;;;;;;;;10.00;9.50;;;;;22.59;47.52;101850.56;5076437;28;45395;-89
2022/08/09 08:17:30;;;;;;;;;8.75;8.50;;;;;22.51;47.31;101832.66;5076476;28;45380;-83
2022/08/09 08:19:55;;;;;;;;;10.00;8.00;;;;;22.66;47.28;101843.44;5075994;28;45449;-88
2022/08/09 08:22:20;;;;;;;;;8.50;8.50;;;;;22.64;47.48;101834.50;5076392;28;45358;-82
2022/08/09 08:24:46;;;;;;;;;9.25;9.25;;;;;22.89;47.12;101870.31;5075984;28;45278;-85
2022/08/09 08:27:12;;;;;;;;;7.50;7.25;;;;;22.89;47.04;101860.47;5076287;28;45345;-87
2022/08/09 08:29:37;;;;;;;;;9.25;9.00;;;;;22.80;46.75;101830.03;5076578;28;45417;-84
2022/08/09 08:32:03;;;;;;;;;9.50;9.50;;;;;22.72;46.63;101808.59;5076775;28;45785;-87
2022/08/09 08:34:28;;;;;;;;;9.25;9.25;;;;;22.95;46.71;101847.97;5076076;28;45400;-90
2022/08/09 08:36:53;;;;;;;;;9.00;9.00;;;;;23.19;46.45;101885.53;5076282;28;45306;-91
2022/08/09 08:39:19;;;;;;;;;8.00;7.00;;;;;23.07;46.46;101853.38;5076489;28;45279;-91
2022/08/09 08:41:44;;;;;;;;;8.75;8.50;;;;;23.07;45.91;101853.38;5075820;28;45266;-86
2022/08/09 08:44:12;;;;;;;;;7.00;7.00;;;;;23.23;45.97;101870.34;5076147;28;45601;-88
2022/08/09 08:46:39;;;;;;;;;8.25;8.00;;;;;23.28;45.93;101879.28;5091763;27;45626;-90
2022/08/09 08:49:09;;;;;;;;;9.25;8.75;;;;;23.08;45.97;101839.94;5076249;27;45285;-91
2022/08/09 08:51:35;;;;;;;;;8.00;8.00;;;;;23.29;45.92;101856.94;5076030;28;45213;-85
2022/08/09 08:54:06;;;;;;;;;8.75;8.75;;;;;23.29;46.11;101854.25;5074766;28;47250;-88
2022/08/09 08:56:36;;;;;;;;;10.00;9.50;;;;;23.28;45.84;101836.38;5092180;27;46057;-90
2022/08/09 08:59:07;;;;;;;;;10.00;9.00;;;;;23.53;45.87;101875.72;5076028;27;45278;-87
2022/08/09 09:01:34;;;;;;;;;7.75;7.75;;;;;23.52;45.36;101860.50;5075133;28;45458;-90
2022/08/09 09:04:07;;;;;;;;;8.75;8.75;;;;;23.33;45.31;101814.00;5075787;28;46642;-87
2022/08/09 09:06:35;;;;;;;;;10.25;10.25;;;;;23.55;45.05;101844.41;5075498;28;45310;-92
2022/08/09 09:09:04;;;;;;;;;8.50;8.00;;;;;23.59;44.75;101847.97;5076167;27;45339;-87
2022/08/09 09:11:30;;;;;;;;;10.25;10.00;;;;;23.61;44.60;101848.88;5076019;28;45437;-90
2022/08/09 09:13:59;;;;;;;;;10.00;9.00;;;;;23.88;44.40;101890.91;5075777;28;45399;-86
2022/08/09 09:16:30;;;;;;;;;8.50;8.50;;;;;23.81;44.75;101851.56;5075840;28;45318;-89
2022/08/09 09:18:55;;;;;;;;;9.25;8.75;;;;;23.82;44.39;101850.66;5076251;28;45453;-91
2022/08/09 09:21:21;;;;;;;;;8.00;8.00;;;;;23.95;43.91;101873.91;5075550;28;45394;-89
2022/08/09 09:23:47;;;;;;;;;9.25;8.75;;;;;23.89;44.69;101849.72;5075535;28;45330;-86
2022/08/09 09:26:14;;;;;;;;;8.00;8.00;;;;;24.11;44.27;101875.63;5091326;27;45400;-88
2022/08/09 09:28:44;;;;;;;;;9.50;8.75;;;;;24.16;44.34;101873.81;5075513;28;45399;-89
2022/08/09 09:31:15;;;;;;;;;7.50;7.00;;;;;24.07;43.66;101838.91;5076085;28;45428;-89
2022/08/09 09:33:40;;;;;;;;;9.00;8.75;;;;;24.14;43.50;101846.06;5091541;27;47130;-90
2022/08/09 09:36:08;;;;;;;;;7.75;7.25;;;;;24.28;43.62;101848.69;5075982;28;45696;-90
2022/08/09 09:38:56;;;;;;;;;9.00;8.25;;;;;24.39;43.72;101862.13;5075960;28;45450;-90
2022/08/09 09:41:22;;;;;;;;;7.25;7.25;;;;;24.44;43.50;101861.19;5091618;27;45492;-87
2022/08/09 09:43:47;;;;;;;;;9.33;9.33;;;;;24.40;43.68;101837.03;5091039;27;48386;-86
2022/08/09 09:46:12;;;;;;;;;8.25;8.25;;;;;24.42;42.81;101829.84;5074270;28;45294;-90
2022/08/09 09:48:38;;;;;;;;;8.00;8.00;;;;;24.61;43.32;101855.72;5075497;28;45566;-85
2022/08/09 09:51:03;;;;;;;;;7.00;7.00;;;;;24.59;42.77;101852.16;5090873;27;45594;-91
2022/08/09 09:53:29;;;;;;;;;8.50;8.50;;;;;24.57;42.89;101831.56;5074412;28;45330;-89
2022/08/09 09:56:01;;;;;;;;;8.00;7.00;;;;;24.82;42.96;101857.38;5091022;27;45914;-89
2022/08/09 09:58:46;;;;;;;;;8.25;8.25;;;;;24.89;42.57;101850.19;5075446;28;45565;-90
2022/08/09 10:01:21;;;;;;;;;6.50;6.50;;;;;24.76;42.19;101816.22;5074197;28;45429;-90
2022/08/09 10:03:48;;;;;;;;;9.25;8.50;;;;;25.01;42.21;101850.09;5073936;28;47374;-90
2022/08/09 10:06:14;;;;;;;;;8.25;8.25;;;;;25.07;42.44;101843.78;5074973;28;45374;-91
2022/08/09 10:08:42;;;;;;;;;8.50;8.50;;;;;25.02;41.74;101824.06;5073902;28;45432;-89
2022/08/09 10:11:18;;;;;;;;;8.25;8.25;;;;;25.12;41.70;101834.81;5075094;28;45710;-90
2022/08/09 10:13:43;;;;;;;;;7.00;6.00;;;;;25.13;41.93;101823.13;5090657;27;46219;-88
2022/08/09 10:16:09;;;;;;;;;8.50;8.00;;;;;25.32;41.87;101844.47;5074846;28;45485;-91
2022/08/09 10:18:34;;;;;;;;;9.00;9.00;;;;;25.26;41.59;101812.25;5074983;27;45435;-91
2022/08/09 10:21:09;;;;;;;;;8.25;8.00;;;;;25.45;40.79;101835.41;5090368;27;45408;-87
2022/08/09 10:23:38;;;;;;;;;9.00;8.25;;;;;25.35;40.70;101807.66;5074887;28;45547;-90
2022/08/09 10:26:03;;;;;;;;;9.50;9.50;;;;;25.55;40.55;101831.69;5073779;28;45319;-91
2022/08/09 10:28:31;;;;;;;;;8.00;7.25;;;;;25.54;40.27;101819.16;5074266;28;46020;-90
2022/08/09 10:30:57;;;;;;;;;8.00;8.00;;;;;25.63;40.47;101810.97;5074897;28;45558;-88
2022/08/09 10:33:23;;;;;;;;;8.25;8.00;;;;;25.82;39.84;101840.44;5074942;28;46607;-90
2022/08/09 10:35:50;;;;;;;;;8.25;8.00;;;;;25.81;39.82;101819.78;5074243;27;45369;-92
2022/08/09 10:38:17;;;;;;;;;8.00;8.00;;;;;25.88;39.86;101818.81;5073589;28;45325;-91
2022/08/09 10:40:44;;;;;;;;;8.50;8.00;;;;;25.82;39.48;101792.84;5073488;28;45473;-90
2022/08/09 10:43:10;;;;;;;;;8.25;7.25;;;;;26.02;38.85;101819.56;5074407;28;46773;-91
2022/08/09 10:45:35;;;;;;;;;9.25;9.00;;;;;26.11;39.07;101821.25;5074794;28;45940;-91
2022/08/09 10:48:35;;;;;;;;;8.50;8.50;;;;;26.27;38.83;101828.22;5074626;28;45548;-91
2022/08/09 10:51:33;;;;;;;;;8.25;8.25;;;;;26.37;39.23;101824.47;5073535;27;45343;-91
2022/08/09 10:54:01;;;;;;;;;8.50;8.25;;;;;26.36;38.46;101814.63;5073228;27;45584;-93
2022/08/09 10:56:29;;;;;;;;;9.25;8.50;;;;;26.37;38.93;101807.44;5075066;28;45541;-91
2022/08/09 10:58:57;;;;;;;;;8.50;8.50;;;;;26.58;38.91;101819.72;5075123;27;45358;-92
2022/08/09 11:01:32;;;;;;;;;8.25;8.25;;;;;26.62;38.84;101825.06;5075382;28;45493;-88
2022/08/09 11:04:20;;;;;;;;;9.50;9.50;;;;;26.70;38.39;101819.56;5074364;28;46056;-87
2022/08/09 11:07:08;;;;;;;;;8.50;8.50;;;;;26.76;38.45;101822.16;5076533;28;45889;-91
2022/08/09 11:09:37;;;;;;;;;10.00;10.00;;;;;26.83;38.00;101815.75;5078099;27;45394;-91
2022/08/09 11:12:14;;;;;;;;;9.00;9.00;;;;;26.90;38.08;101817.44;5078192;28;45380;-91
2022/08/09 11:15:04;;;;;;;;;10.75;8.00;;;;;26.94;37.98;101811.06;5077644;28;45311;-85
2022/08/09 11:17:29;;;;;;;;;8.75;8.00;;;;;27.05;37.74;101802.81;5076902;28;46292;-92
2022/08/09 11:19:58;;;;;;;;;9.00;9.00;;;;;27.15;37.66;101804.47;5078151;28;45368;-91
2022/08/09 11:22:42;;;;;;;;;8.00;8.00;;;;;27.25;37.99;101803.38;5077745;27;45570;-91
2022/08/09 11:25:14;;;;;;;;;8.25;8.25;;;;;27.28;37.07;101797.03;5093697;27;48411;-92
2022/08/09 11:27:43;;;;;;;;;9.75;9.00;;;;;27.39;37.03;101802.22;5076186;28;45476;-90